Time;durP1;ratioP1;P1;durP2;ratioP2;P2;SDS_P1;SDS_P2;PMS_P1;PMS_P2;Temp;Humidity;BMP_temperature;BMP_pressure;BME280_temperature;BME280_humidity;BME280_pressure;Samples;Min_cycle;Max_cycle;Signal;HPM_P1;HPM_P2
2022/06/30 00:01:26;;;;;;;5.30;2.80;;;;;;;;;;5022055;28;20053;-86
2022/06/30 00:03:52;;;;;;;7.68;2.72;;;;;;;;;;5021084;28;20030;-85
2022/06/30 00:06:17;;;;;;;9.02;2.90;;;;;;;;;;5020884;28;20026;-85
2022/06/30 00:08:43;;;;;;;7.82;3.10;;;;;;;;;;5022039;28;20488;-85
2022/06/30 00:11:09;;;;;;;5.53;2.90;;;;;;;;;;5021991;28;20037;-85
2022/06/30 00:13:35;;;;;;;5.18;2.97;;;;;;;;;;5021618;28;20140;-86
2022/06/30 00:16:02;;;;;;;5.57;2.83;;;;;;;;;;5020175;28;20037;-85
2022/06/30 00:18:27;;;;;;;5.10;2.70;;;;;;;;;;5022041;28;20107;-86
2022/06/30 00:20:53;;;;;;;5.88;2.80;;;;;;;;;;5021528;28;20466;-85
2022/06/30 00:23:18;;;;;;;7.57;2.90;;;;;;;;;;5021324;28;20034;-86
2022/06/30 00:25:44;;;;;;;8.27;2.90;;;;;;;;;;5020442;28;20029;-85
2022/06/30 00:28:09;;;;;;;7.18;2.72;;;;;;;;;;5020451;28;20551;-85
2022/06/30 00:30:35;;;;;;;7.20;2.80;;;;;;;;;;5022257;28;20469;-85
2022/06/30 00:33:00;;;;;;;6.57;2.83;;;;;;;;;;5022324;28;20059;-86
2022/06/30 00:35:26;;;;;;;8.15;2.78;;;;;;;;;;5021139;28;20053;-85
2022/06/30 00:37:52;;;;;;;5.78;3.10;;;;;;;;;;5021846;28;20076;-85
2022/06/30 00:40:17;;;;;;;6.25;2.97;;;;;;;;;;5020052;28;20034;-85
2022/06/30 00:42:43;;;;;;;5.55;2.60;;;;;;;;;;5021682;28;20033;-85
2022/06/30 00:45:09;;;;;;;4.28;2.67;;;;;;;;;;5021568;28;20052;-85
2022/06/30 00:47:34;;;;;;;6.82;2.90;;;;;;;;;;5022093;28;20037;-85
2022/06/30 00:50:01;;;;;;;6.90;2.72;;;;;;;;;;5022175;28;20032;-86
2022/06/30 00:52:28;;;;;;;7.25;3.03;;;;;;;;;;5021575;28;20390;-86
2022/06/30 00:54:56;;;;;;;7.55;3.15;;;;;;;;;;5021427;28;20034;-86
2022/06/30 00:57:24;;;;;;;8.45;3.00;;;;;;;;;;5019151;28;20378;-86
2022/06/30 00:59:53;;;;;;;7.00;2.88;;;;;;;;;;5020809;28;20033;-86
2022/06/30 01:02:19;;;;;;;5.57;3.00;;;;;;;;;;5019936;28;20045;-85
2022/06/30 01:04:47;;;;;;;6.28;3.15;;;;;;;;;;5020782;28;20030;-86
2022/06/30 01:07:16;;;;;;;5.68;2.70;;;;;;;;;;5021242;28;20116;-86
2022/06/30 01:12:44;;;;;;;4.90;2.70;;;;;;;;;;5020918;28;20620;-86
2022/06/30 01:15:12;;;;;;;8.10;3.08;;;;;;;;;;5020132;28;20038;-86
2022/06/30 01:17:38;;;;;;;6.90;2.72;;;;;;;;;;5021301;28;20037;-85
2022/06/30 01:20:04;;;;;;;6.45;2.80;;;;;;;;;;5020430;28;20014;-86
2022/06/30 01:22:30;;;;;;;9.25;3.00;;;;;;;;;;5021077;28;20041;-86
2022/06/30 01:24:56;;;;;;;4.25;2.90;;;;;;;;;;5019757;28;20037;-86
2022/06/30 01:27:21;;;;;;;8.07;2.92;;;;;;;;;;5020137;28;20041;-86
2022/06/30 01:29:48;;;;;;;5.53;3.08;;;;;;;;;;5020543;28;20088;-86
2022/06/30 01:32:14;;;;;;;5.22;2.92;;;;;;;;;;5019408;28;20037;-86
2022/06/30 01:34:39;;;;;;;7.00;3.00;;;;;;;;;;5020636;28;20030;-86
2022/06/30 01:37:05;;;;;;;7.03;2.83;;;;;;;;;;5020451;28;20022;-86
2022/06/30 01:39:31;;;;;;;5.03;2.88;;;;;;;;;;5020789;28;20037;-86
2022/06/30 01:41:57;;;;;;;4.72;2.83;;;;;;;;;;5019818;28;20033;-86
2022/06/30 01:44:23;;;;;;;5.78;2.90;;;;;;;;;;5020525;28;20037;-85
2022/06/30 01:46:49;;;;;;;5.32;2.70;;;;;;;;;;5020520;28;20030;-85
2022/06/30 01:49:15;;;;;;;6.70;2.88;;;;;;;;;;5020543;28;20029;-86
2022/06/30 01:51:41;;;;;;;6.70;2.70;;;;;;;;;;5020148;28;20040;-86
2022/06/30 01:54:08;;;;;;;6.53;3.00;;;;;;;;;;5002923;28;20041;-85
2022/06/30 01:56:38;;;;;;;7.40;2.92;;;;;;;;;;5020151;28;20022;-86
2022/06/30 01:59:04;;;;;;;6.35;3.10;;;;;;;;;;5020238;28;20089;-86
2022/06/30 02:01:30;;;;;;;5.88;3.17;;;;;;;;;;5017968;28;20033;-86
2022/06/30 02:03:55;;;;;;;6.03;3.15;;;;;;;;;;5018333;28;20393;-85
2022/06/30 02:06:22;;;;;;;6.93;2.97;;;;;;;;;;5019923;28;20037;-85
2022/06/30 02:08:47;;;;;;;5.15;2.78;;;;;;;;;;5019813;28;20057;-85
2022/06/30 02:11:13;;;;;;;5.55;2.65;;;;;;;;;;5019311;28;20030;-85
2022/06/30 02:13:38;;;;;;;5.20;3.10;;;;;;;;;;5018531;28;20057;-85
2022/06/30 02:16:04;;;;;;;6.90;2.92;;;;;;;;;;5020066;28;20454;-85
2022/06/30 02:18:30;;;;;;;8.00;2.88;;;;;;;;;;5019079;28;20025;-85
2022/06/30 02:20:57;;;;;;;6.25;3.20;;;;;;;;;;5019619;28;20060;-85
2022/06/30 02:23:23;;;;;;;6.80;3.08;;;;;;;;;;5019511;28;20030;-86
2022/06/30 02:25:48;;;;;;;4.57;3.13;;;;;;;;;;5019367;28;20059;-85
2022/06/30 02:28:14;;;;;;;4.90;2.88;;;;;;;;;;5019979;28;20025;-85
2022/06/30 02:30:39;;;;;;;7.93;3.10;;;;;;;;;;5019665;28;20086;-85
2022/06/30 02:33:05;;;;;;;4.93;2.95;;;;;;;;;;5019110;28;20493;-85
2022/06/30 02:35:30;;;;;;;6.97;3.28;;;;;;;;;;5018943;28;20026;-85
2022/06/30 02:37:57;;;;;;;10.23;2.90;;;;;;;;;;5019310;28;20498;-85
2022/06/30 02:40:23;;;;;;;6.60;3.30;;;;;;;;;;5019159;28;20439;-85
2022/06/30 02:42:48;;;;;;;4.38;2.72;;;;;;;;;;5019767;28;20034;-85
2022/06/30 02:45:14;;;;;;;7.55;2.80;;;;;;;;;;5019484;28;20041;-85
2022/06/30 02:47:42;;;;;;;5.05;3.20;;;;;;;;;;5019204;28;20034;-85
2022/06/30 02:50:11;;;;;;;4.60;2.90;;;;;;;;;;5018796;28;20029;-85
2022/06/30 02:52:37;;;;;;;7.50;2.90;;;;;;;;;;5018429;28;20125;-85
2022/06/30 02:55:04;;;;;;;5.75;2.90;;;;;;;;;;5017009;28;20045;-85
2022/06/30 02:57:30;;;;;;;5.93;2.80;;;;;;;;;;5019436;28;20034;-85
2022/06/30 02:59:56;;;;;;;8.15;3.13;;;;;;;;;;5018400;28;20030;-85
2022/06/30 03:02:22;;;;;;;6.70;3.08;;;;;;;;;;5019777;28;20513;-85
2022/06/30 03:04:48;;;;;;;5.85;2.85;;;;;;;;;;5018767;28;20038;-85
2022/06/30 03:07:14;;;;;;;4.40;3.00;;;;;;;;;;5018785;28;20037;-85
2022/06/30 03:09:40;;;;;;;7.03;2.90;;;;;;;;;;5019021;28;20080;-84
2022/06/30 03:12:06;;;;;;;5.82;3.22;;;;;;;;;;5018533;28;20037;-86
2022/06/30 03:14:31;;;;;;;6.65;2.97;;;;;;;;;;5018341;28;20363;-85
2022/06/30 03:16:57;;;;;;;5.28;2.85;;;;;;;;;;5019336;28;20034;-85
2022/06/30 03:19:22;;;;;;;5.63;2.92;;;;;;;;;;5018225;28;20113;-85
2022/06/30 03:21:49;;;;;;;4.50;2.88;;;;;;;;;;5019435;28;20061;-85
2022/06/30 03:24:14;;;;;;;7.05;3.00;;;;;;;;;;5018261;28;20101;-85
2022/06/30 03:26:40;;;;;;;6.82;2.95;;;;;;;;;;5017010;28;20065;-85
2022/06/30 03:29:06;;;;;;;4.88;2.88;;;;;;;;;;5019105;28;20026;-85
2022/06/30 03:31:32;;;;;;;7.32;3.10;;;;;;;;;;5018856;28;20026;-85
2022/06/30 03:33:58;;;;;;;4.97;2.90;;;;;;;;;;5018237;28;20030;-84
2022/06/30 03:36:24;;;;;;;5.05;2.90;;;;;;;;;;5018776;28;20095;-85
2022/06/30 03:38:49;;;;;;;9.45;3.13;;;;;;;;;;5017783;28;20034;-85
2022/06/30 03:41:15;;;;;;;5.50;3.40;;;;;;;;;;5018352;28;20041;-85
2022/06/30 03:43:41;;;;;;;6.07;2.90;;;;;;;;;;5017071;28;20045;-85
2022/06/30 03:46:06;;;;;;;6.38;3.08;;;;;;;;;;5016991;28;20248;-86
2022/06/30 03:48:35;;;;;;;5.75;3.00;;;;;;;;;;5018447;28;20539;-86
2022/06/30 03:51:02;;;;;;;7.28;3.17;;;;;;;;;;5018072;28;20030;-85
2022/06/30 03:53:28;;;;;;;5.25;3.03;;;;;;;;;;5017690;28;20072;-85
2022/06/30 03:55:53;;;;;;;8.13;3.40;;;;;;;;;;5017109;28;20065;-85
2022/06/30 03:58:19;;;;;;;4.80;3.00;;;;;;;;;;5017416;28;20034;-85
2022/06/30 04:00:44;;;;;;;4.75;2.92;;;;;;;;;;5018890;28;20025;-85
2022/06/30 04:03:10;;;;;;;7.22;3.10;;;;;;;;;;5018204;28;20022;-85
2022/06/30 04:05:36;;;;;;;7.57;3.50;;;;;;;;;;5017291;28;20030;-85
2022/06/30 04:08:01;;;;;;;5.30;3.00;;;;;;;;;;5020145;28;20037;-85
2022/06/30 04:10:27;;;;;;;6.18;3.15;;;;;;;;;;5021618;28;20040;-85
2022/06/30 04:12:52;;;;;;;5.57;3.00;;;;;;;;;;5021292;28;20029;-85
2022/06/30 04:15:18;;;;;;;4.93;2.80;;;;;;;;;;5021647;28;20121;-85
2022/06/30 04:17:43;;;;;;;4.78;3.10;;;;;;;;;;5021907;28;20030;-85
2022/06/30 04:20:15;;;;;;;5.20;2.80;;;;;;;;;;5021497;28;20522;-85
2022/06/30 04:22:49;;;;;;;7.25;3.03;;;;;;;;;;5020957;28;20074;-85
2022/06/30 04:25:16;;;;;;;8.35;3.30;;;;;;;;;;5024823;28;20054;-87
2022/06/30 04:27:48;;;;;;;6.07;3.25;;;;;;;;;;5029190;28;20029;-87
2022/06/30 04:30:14;;;;;;;5.60;3.00;;;;;;;;;;5029215;28;20048;-87
2022/06/30 04:32:41;;;;;;;6.00;2.95;;;;;;;;;;5029826;28;20093;-87
2022/06/30 04:35:07;;;;;;;5.30;2.78;;;;;;;;;;5028894;28;20053;-87
2022/06/30 04:37:32;;;;;;;3.97;2.97;;;;;;;;;;5029173;28;20033;-87
2022/06/30 04:42:42;;;;;;;7.30;3.08;;;;;;;;;;5028372;28;20057;-87
2022/06/30 04:45:08;;;;;;;6.30;3.03;;;;;;;;;;5029155;28;20041;-87
2022/06/30 04:47:37;;;;;;;3.88;3.05;;;;;;;;;;5029651;28;20026;-87
2022/06/30 04:50:04;;;;;;;6.78;2.88;;;;;;;;;;5028720;28;20459;-87
2022/06/30 04:52:30;;;;;;;5.63;3.17;;;;;;;;;;5026238;28;20093;-87
2022/06/30 04:54:55;;;;;;;7.57;3.10;;;;;;;;;;5024932;28;20066;-87
2022/06/30 04:57:21;;;;;;;6.85;3.20;;;;;;;;;;5026439;28;20033;-87
2022/06/30 04:59:46;;;;;;;8.65;3.22;;;;;;;;;;5026210;28;20034;-88
2022/06/30 05:02:12;;;;;;;6.88;3.00;;;;;;;;;;5026012;28;20053;-87
2022/06/30 05:04:37;;;;;;;5.15;3.00;;;;;;;;;;5026110;28;20112;-88
2022/06/30 05:07:03;;;;;;;7.28;3.00;;;;;;;;;;5026190;28;20065;-88
2022/06/30 05:09:29;;;;;;;8.13;2.90;;;;;;;;;;5026480;28;20038;-87
2022/06/30 05:11:54;;;;;;;9.63;3.25;;;;;;;;;;5025270;28;20513;-87
2022/06/30 05:14:20;;;;;;;6.57;3.13;;;;;;;;;;5025410;28;20056;-88
2022/06/30 05:16:46;;;;;;;6.63;3.08;;;;;;;;;;5024300;28;20037;-87
2022/06/30 05:19:11;;;;;;;5.55;2.83;;;;;;;;;;5024647;28;20038;-87
2022/06/30 05:21:37;;;;;;;5.78;3.03;;;;;;;;;;5022952;28;20527;-86
2022/06/30 05:26:47;;;;;;;5.05;2.90;;;;;;;;;;5024076;28;20150;-86
2022/06/30 05:29:15;;;;;;;5.15;2.80;;;;;;;;;;5023257;28;20360;-87
2022/06/30 05:34:59;;;;;;;8.00;2.55;;;;;;;;;;5022641;28;20569;-88
2022/06/30 05:37:35;;;;;;;5.50;2.80;;;;;;;;;;5023729;28;20030;-87
2022/06/30 05:40:03;;;;;;;5.00;2.63;;;;;;;;;;5020557;28;20034;-87
2022/06/30 05:42:54;;;;;;;5.10;2.50;;;;;;;;;;5022189;28;20050;-88
2022/06/30 05:45:32;;;;;;;7.20;2.60;;;;;;;;;;5019586;28;20037;-88
2022/06/30 05:48:00;;;;;;;4.85;2.45;;;;;;;;;;5020634;28;20470;-88
2022/06/30 05:50:32;;;;;;;5.78;2.40;;;;;;;;;;5021097;28;20064;-89
2022/06/30 05:53:04;;;;;;;4.82;2.60;;;;;;;;;;5018730;28;20030;-87
2022/06/30 05:55:35;;;;;;;6.93;3.22;;;;;;;;;;5020392;28;20033;-89
2022/06/30 05:58:14;;;;;;;6.18;2.97;;;;;;;;;;5022521;28;20030;-88
2022/06/30 06:00:39;;;;;;;4.90;2.40;;;;;;;;;;5021031;28;20048;-89
2022/06/30 06:03:05;;;;;;;5.10;2.38;;;;;;;;;;5020214;28;20025;-89
2022/06/30 06:05:31;;;;;;;7.47;2.55;;;;;;;;;;5019734;28;20044;-88
2022/06/30 06:08:03;;;;;;;4.50;2.80;;;;;;;;;;5020295;28;20022;-88
2022/06/30 06:10:29;;;;;;;5.82;2.50;;;;;;;;;;5020156;28;20459;-88
2022/06/30 06:12:57;;;;;;;8.15;2.63;;;;;;;;;;5019035;28;20021;-87
2022/06/30 06:15:25;;;;;;;4.68;2.90;;;;;;;;;;5018536;28;20033;-88
2022/06/30 06:17:53;;;;;;;5.40;2.35;;;;;;;;;;5019917;28;20029;-89
2022/06/30 06:20:20;;;;;;;5.00;2.60;;;;;;;;;;5020323;28;20565;-88
2022/06/30 06:22:46;;;;;;;4.88;2.50;;;;;;;;;;5018954;28;20084;-88
2022/06/30 06:25:13;;;;;;;4.70;2.25;;;;;;;;;;5020175;28;20068;-89
2022/06/30 06:27:42;;;;;;;3.97;2.30;;;;;;;;;;5019973;28;20113;-88
2022/06/30 06:30:11;;;;;;;5.53;2.55;;;;;;;;;;5019609;28;20424;-87
2022/06/30 06:32:37;;;;;;;5.10;2.22;;;;;;;;;;5020373;28;20036;-88
2022/06/30 06:35:19;;;;;;;3.58;2.20;;;;;;;;;;5018304;28;20018;-88
2022/06/30 06:37:44;;;;;;;4.22;2.30;;;;;;;;;;5018873;28;20034;-88
2022/06/30 06:40:13;;;;;;;6.00;2.50;;;;;;;;;;5018867;28;20113;-88
2022/06/30 06:42:40;;;;;;;4.47;2.22;;;;;;;;;;5018502;28;20044;-88
2022/06/30 06:45:13;;;;;;;4.90;2.35;;;;;;;;;;5018897;28;20026;-89
2022/06/30 06:47:39;;;;;;;3.83;2.38;;;;;;;;;;5019176;28;20025;-89
2022/06/30 06:50:08;;;;;;;4.45;2.45;;;;;;;;;;5017070;28;20029;-89
2022/06/30 06:52:34;;;;;;;4.45;2.30;;;;;;;;;;5018159;28;20025;-88
2022/06/30 06:54:59;;;;;;;6.40;2.55;;;;;;;;;;5019834;28;20378;-88
2022/06/30 06:57:24;;;;;;;4.30;2.17;;;;;;;;;;5018461;28;20064;-88
2022/06/30 06:59:50;;;;;;;9.00;2.33;;;;;;;;;;5019063;28;20030;-88
2022/06/30 07:02:15;;;;;;;4.75;2.22;;;;;;;;;;5020062;28;20029;-88
2022/06/30 07:04:41;;;;;;;5.78;2.15;;;;;;;;;;5017774;28;20049;-87
2022/06/30 07:07:06;;;;;;;4.20;2.20;;;;;;;;;;5018091;28;20034;-88
2022/06/30 07:09:32;;;;;;;9.00;2.40;;;;;;;;;;5020668;28;20017;-88
2022/06/30 07:11:58;;;;;;;7.53;2.33;;;;;;;;;;5019988;28;20065;-88
2022/06/30 07:14:23;;;;;;;6.40;2.33;;;;;;;;;;5019930;28;20032;-87
2022/06/30 07:16:49;;;;;;;5.35;2.50;;;;;;;;;;5020297;28;20036;-87
2022/06/30 07:19:14;;;;;;;8.75;2.25;;;;;;;;;;5021336;28;20034;-88
2022/06/30 07:21:40;;;;;;;6.18;2.30;;;;;;;;;;5018018;28;20068;-88
2022/06/30 07:24:05;;;;;;;5.93;2.42;;;;;;;;;;5002433;28;20038;-88
2022/06/30 07:26:31;;;;;;;4.72;2.17;;;;;;;;;;5020438;28;20089;-88
2022/06/30 07:28:57;;;;;;;5.57;2.47;;;;;;;;;;5019537;28;20037;-88
2022/06/30 07:31:23;;;;;;;4.40;2.10;;;;;;;;;;5021000;28;20037;-88
2022/06/30 07:33:48;;;;;;;3.40;2.05;;;;;;;;;;5020134;28;20099;-88
2022/06/30 07:36:14;;;;;;;6.90;2.50;;;;;;;;;;5019562;28;20433;-88
2022/06/30 07:38:40;;;;;;;4.97;2.25;;;;;;;;;;5020132;28;20034;-88
2022/06/30 07:41:05;;;;;;;5.43;2.17;;;;;;;;;;5020356;28;20026;-88
2022/06/30 07:43:31;;;;;;;9.88;2.63;;;;;;;;;;5022324;28;20034;-88
2022/06/30 07:45:56;;;;;;;5.95;2.30;;;;;;;;;;5020056;28;20041;-88
2022/06/30 07:48:22;;;;;;;6.03;2.30;;;;;;;;;;5021088;28;20038;-88
2022/06/30 07:50:48;;;;;;;5.80;2.38;;;;;;;;;;5020640;28;20029;-88
2022/06/30 07:53:13;;;;;;;9.23;2.50;;;;;;;;;;5022435;28;20022;-88
2022/06/30 07:55:39;;;;;;;5.40;2.20;;;;;;;;;;5021979;28;20034;-88
2022/06/30 07:58:04;;;;;;;3.85;2.28;;;;;;;;;;5022591;28;20108;-88
2022/06/30 08:00:30;;;;;;;8.27;2.70;;;;;;;;;;5022668;28;20029;-88
2022/06/30 08:02:55;;;;;;;6.20;2.53;;;;;;;;;;5020654;28;20038;-88
2022/06/30 08:05:21;;;;;;;7.05;2.45;;;;;;;;;;5020899;28;20029;-87
2022/06/30 08:07:46;;;;;;;6.28;2.38;;;;;;;;;;5021392;28;20065;-89
2022/06/30 08:10:12;;;;;;;7.43;2.83;;;;;;;;;;5022601;28;20100;-89
2022/06/30 08:12:38;;;;;;;5.00;2.30;;;;;;;;;;5021607;28;20073;-89
2022/06/30 08:15:04;;;;;;;6.88;2.63;;;;;;;;;;5017090;28;20038;-88
2022/06/30 08:17:31;;;;;;;8.45;2.30;;;;;;;;;;5018128;28;20030;-89
2022/06/30 08:19:58;;;;;;;4.95;2.30;;;;;;;;;;5020407;28;20030;-89
2022/06/30 08:22:24;;;;;;;7.80;2.50;;;;;;;;;;5017512;28;20502;-88
2022/06/30 08:24:49;;;;;;;6.03;2.58;;;;;;;;;;5017182;28;20151;-88
2022/06/30 08:27:15;;;;;;;6.55;2.70;;;;;;;;;;5020288;28;20060;-89
2022/06/30 08:29:40;;;;;;;5.95;2.70;;;;;;;;;;5021432;28;20114;-87
2022/06/30 08:32:06;;;;;;;5.50;2.70;;;;;;;;;;5024426;28;20121;-88
2022/06/30 08:34:32;;;;;;;5.53;2.72;;;;;;;;;;5018861;28;20033;-88
2022/06/30 08:36:57;;;;;;;5.97;2.60;;;;;;;;;;5018942;28;20133;-85
2022/06/30 08:42:08;;;;;;;5.53;2.67;;;;;;;;;;5017863;28;20037;-88
2022/06/30 08:44:36;;;;;;;4.30;2.80;;;;;;;;;;5020149;28;20084;-88
2022/06/30 08:47:04;;;;;;;7.05;3.00;;;;;;;;;;5022641;28;20093;-89
2022/06/30 08:49:30;;;;;;;3.92;2.60;;;;;;;;;;5022434;28;20053;-87
2022/06/30 08:51:57;;;;;;;4.00;2.70;;;;;;;;;;5022869;28;20033;-87
2022/06/30 08:54:26;;;;;;;6.20;2.70;;;;;;;;;;5021025;28;20032;-88
2022/06/30 08:56:53;;;;;;;7.28;2.85;;;;;;;;;;5020085;28;20261;-88
2022/06/30 08:59:20;;;;;;;5.88;2.80;;;;;;;;;;5021917;28;20080;-89
2022/06/30 09:01:46;;;;;;;6.60;2.80;;;;;;;;;;5021916;28;20061;-89
2022/06/30 09:04:12;;;;;;;6.85;3.15;;;;;;;;;;5020246;28;20030;-89
2022/06/30 09:06:41;;;;;;;4.57;2.75;;;;;;;;;;5021411;28;20539;-89
2022/06/30 09:09:07;;;;;;;4.53;2.80;;;;;;;;;;5020043;28;20033;-88
2022/06/30 09:11:56;;;;;;;6.72;3.08;;;;;;;;;;5017411;28;20136;-89
2022/06/30 09:14:42;;;;;;;7.82;3.13;;;;;;;;;;5021044;28;20022;-88
2022/06/30 09:17:19;;;;;;;7.68;3.00;;;;;;;;;;5024621;28;20060;-88
2022/06/30 09:20:03;;;;;;;7.05;3.10;;;;;;;;;;5022103;28;20038;-89
2022/06/30 09:22:34;;;;;;;6.28;2.90;;;;;;;;;;5022227;28;20145;-89
2022/06/30 09:25:06;;;;;;;5.82;2.75;;;;;;;;;;5021518;28;20029;-89
2022/06/30 09:27:40;;;;;;;9.32;2.60;;;;;;;;;;5021039;28;20397;-88
2022/06/30 09:30:09;;;;;;;4.82;2.80;;;;;;;;;;5005191;28;20038;-89
2022/06/30 09:32:57;;;;;;;5.68;3.03;;;;;;;;;;5020675;28;20093;-89
2022/06/30 09:35:25;;;;;;;5.35;2.60;;;;;;;;;;5022282;28;20120;-89
2022/06/30 09:38:05;;;;;;;4.80;2.63;;;;;;;;;;5004284;28;20040;-89
2022/06/30 09:41:00;;;;;;;8.23;2.80;;;;;;;;;;5021645;28;20025;-89
2022/06/30 09:43:37;;;;;;;7.25;2.70;;;;;;;;;;5005406;28;20050;-88
2022/06/30 09:46:04;;;;;;;6.22;2.70;;;;;;;;;;5016916;28;20479;-86
2022/06/30 09:48:33;;;;;;;4.60;2.60;;;;;;;;;;5020165;28;20030;-87
2022/06/30 09:51:01;;;;;;;4.75;2.50;;;;;;;;;;5018591;28;20030;-88
2022/06/30 09:53:27;;;;;;;8.52;2.70;;;;;;;;;;5016931;28;20087;-88
2022/06/30 09:55:53;;;;;;;5.57;2.90;;;;;;;;;;5016318;28;20036;-87
2022/06/30 09:58:27;;;;;;;5.68;2.67;;;;;;;;;;5019915;28;20025;-89
2022/06/30 10:00:58;;;;;;;4.95;2.53;;;;;;;;;;5018399;28;20037;-87
2022/06/30 10:03:23;;;;;;;5.20;2.38;;;;;;;;;;5015295;28;20037;-88
2022/06/30 10:05:51;;;;;;;6.13;2.70;;;;;;;;;;5016915;28;20038;-87
2022/06/30 10:08:18;;;;;;;7.35;2.60;;;;;;;;;;5017235;28;20037;-88
2022/06/30 10:10:45;;;;;;;7.03;2.50;;;;;;;;;;5017982;28;20065;-87
2022/06/30 10:13:16;;;;;;;6.82;3.20;;;;;;;;;;5017515;28;20022;-88
2022/06/30 10:15:47;;;;;;;5.97;2.70;;;;;;;;;;5017221;28;20037;-87
2022/06/30 10:18:14;;;;;;;5.18;2.63;;;;;;;;;;5016733;28;20591;-86
2022/06/30 10:20:40;;;;;;;8.85;2.65;;;;;;;;;;5016330;28;20069;-89
2022/06/30 10:23:09;;;;;;;4.53;2.45;;;;;;;;;;5015777;28;20104;-88
2022/06/30 10:25:35;;;;;;;6.38;2.63;;;;;;;;;;5016850;28;20037;-89
2022/06/30 10:28:03;;;;;;;8.45;2.85;;;;;;;;;;5016627;28;20041;-89
2022/06/30 10:30:55;;;;;;;6.80;2.78;;;;;;;;;;5015784;28;20479;-89
2022/06/30 10:33:48;;;;;;;8.02;2.70;;;;;;;;;;5005488;28;20038;-88
2022/06/30 10:36:30;;;;;;;10.23;2.60;;;;;;;;;;5014622;28;20282;-88
2022/06/30 10:39:10;;;;;;;6.53;2.90;;;;;;;;;;5014101;28;20334;-88
2022/06/30 10:41:46;;;;;;;5.03;2.70;;;;;;;;;;5030223;28;20040;-89
2022/06/30 10:44:19;;;;;;;5.70;2.63;;;;;;;;;;5016477;28;20475;-88
2022/06/30 10:46:44;;;;;;;5.18;2.75;;;;;;;;;;5016144;28;20037;-89
2022/06/30 10:49:12;;;;;;;4.82;2.45;;;;;;;;;;5015411;28;20121;-89
2022/06/30 10:51:38;;;;;;;6.60;2.88;;;;;;;;;;5013315;28;20030;-88
2022/06/30 10:54:04;;;;;;;7.70;2.60;;;;;;;;;;5014744;28;20105;-89
2022/06/30 10:56:48;;;;;;;6.10;2.88;;;;;;;;;;5015291;28;20050;-89
2022/06/30 10:59:14;;;;;;;6.35;2.53;;;;;;;;;;5015590;28;20030;-88
2022/06/30 11:02:08;;;;;;;5.07;2.70;;;;;;;;;;4997769;28;20034;-88
2022/06/30 11:04:37;;;;;;;8.38;2.60;;;;;;;;;;5014501;28;20080;-89
2022/06/30 11:07:14;;;;;;;5.47;2.92;;;;;;;;;;5014869;28;20042;-89
2022/06/30 11:09:49;;;;;;;5.90;2.75;;;;;;;;;;5014201;28;20552;-89
2022/06/30 11:12:19;;;;;;;11.68;2.85;;;;;;;;;;5014226;28;20034;-89
2022/06/30 11:14:55;;;;;;;5.07;2.70;;;;;;;;;;5013954;28;20034;-88
2022/06/30 11:17:29;;;;;;;6.20;2.55;;;;;;;;;;5000789;28;20034;-89
2022/06/30 11:20:09;;;;;;;7.88;2.90;;;;;;;;;;5017399;28;20116;-86
2022/06/30 11:22:35;;;;;;;9.20;2.50;;;;;;;;;;5022968;28;20037;-88
2022/06/30 11:25:09;;;;;;;6.70;2.70;;;;;;;;;;5022187;28;20033;-89
2022/06/30 11:27:38;;;;;;;4.53;2.67;;;;;;;;;;5023428;28;20042;-89
2022/06/30 11:30:09;;;;;;;5.30;2.70;;;;;;;;;;5021432;28;20041;-89
2022/06/30 11:32:35;;;;;;;8.40;2.90;;;;;;;;;;5023080;28;20113;-89
2022/06/30 11:35:01;;;;;;;6.70;2.70;;;;;;;;;;5022742;28;20428;-89
2022/06/30 11:37:30;;;;;;;8.05;2.60;;;;;;;;;;5022865;28;20478;-88
2022/06/30 11:40:00;;;;;;;7.53;2.90;;;;;;;;;;5021522;28;20061;-89
2022/06/30 11:42:27;;;;;;;6.13;2.80;;;;;;;;;;4963499;28;20103;-88
2022/06/30 11:44:53;;;;;;;6.75;2.60;;;;;;;;;;5021824;28;20021;-88
2022/06/30 11:47:21;;;;;;;12.60;2.72;;;;;;;;;;5022811;28;20049;-89
2022/06/30 11:49:46;;;;;;;5.18;2.30;;;;;;;;;;5022361;28;20386;-89
2022/06/30 11:52:16;;;;;;;7.60;2.60;;;;;;;;;;5022411;28;20022;-89
2022/06/30 11:54:53;;;;;;;5.63;2.53;;;;;;;;;;5036933;28;20057;-88
2022/06/30 11:57:20;;;;;;;6.75;2.60;;;;;;;;;;5021550;28;20030;-89
2022/06/30 11:59:47;;;;;;;5.50;2.40;;;;;;;;;;5020448;28;20041;-91
2022/06/30 12:02:14;;;;;;;6.05;2.70;;;;;;;;;;5016454;28;20029;-89
2022/06/30 12:04:43;;;;;;;8.77;2.53;;;;;;;;;;5017745;28;20048;-88
2022/06/30 12:07:16;;;;;;;4.53;2.80;;;;;;;;;;5033138;28;20044;-88
2022/06/30 12:09:44;;;;;;;;;;;;;;;;;;5018186;28;20105;-86
2022/06/30 12:12:12;;;;;;;5.15;2.78;;;;;;;;;;5016427;28;20358;-89
2022/06/30 12:14:39;;;;;;;5.40;2.80;;;;;;;;;;5017273;28;20033;-88
2022/06/30 12:17:10;;;;;;;7.10;2.80;;;;;;;;;;5017454;28;20153;-89
2022/06/30 12:19:36;;;;;;;8.18;3.13;;;;;;;;;;5017006;28;20041;-88
2022/06/30 12:22:04;;;;;;;9.90;2.95;;;;;;;;;;5017060;28;20095;-89
2022/06/30 12:24:30;;;;;;;4.55;2.70;;;;;;;;;;5016101;28;20030;-88
2022/06/30 12:26:58;;;;;;;5.00;2.78;;;;;;;;;;5016421;28;20053;-89
2022/06/30 12:29:26;;;;;;;5.57;3.03;;;;;;;;;;5019166;28;20374;-88
2022/06/30 12:32:04;;;;;;;6.50;2.72;;;;;;;;;;5015524;28;20048;-89
2022/06/30 12:34:31;;;;;;;6.72;2.78;;;;;;;;;;5016548;28;20026;-88
2022/06/30 12:36:59;;;;;;;6.00;3.00;;;;;;;;;;5017326;28;20119;-89
2022/06/30 12:39:25;;;;;;;7.00;2.80;;;;;;;;;;5016994;28;20029;-88
2022/06/30 12:42:00;;;;;;;4.00;2.60;;;;;;;;;;5015162;28;20121;-89
2022/06/30 12:44:35;;;;;;;5.95;3.08;;;;;;;;;;4998632;28;20128;-88
2022/06/30 12:47:08;;;;;;;7.43;2.92;;;;;;;;;;5016413;28;20072;-88
2022/06/30 12:49:34;;;;;;;;;;;;;;;;;;5015516;28;20557;-88
2022/06/30 12:52:00;;;;;;;7.30;2.97;;;;;;;;;;5014361;28;19913;-89
2022/06/30 12:54:27;;;;;;;6.05;2.67;;;;;;;;;;5014679;28;20379;-89
2022/06/30 12:57:04;;;;;;;7.78;3.00;;;;;;;;;;5016160;28;20088;-88
2022/06/30 12:59:44;;;;;;;8.88;3.35;;;;;;;;;;5016723;28;20030;-88
2022/06/30 13:02:10;;;;;;;7.47;2.67;;;;;;;;;;5017066;28;20061;-88
2022/06/30 13:04:35;;;;;;;5.90;2.97;;;;;;;;;;5017189;28;20060;-88
2022/06/30 13:07:01;;;;;;;5.22;2.80;;;;;;;;;;5015146;28;20056;-88
2022/06/30 13:09:29;;;;;;;7.25;3.10;;;;;;;;;;5015007;28;20030;-88
2022/06/30 13:11:57;;;;;;;6.50;2.95;;;;;;;;;;5015326;28;20489;-89
2022/06/30 13:14:25;;;;;;;9.85;3.30;;;;;;;;;;5017035;28;20018;-89
2022/06/30 13:16:54;;;;;;;4.32;2.90;;;;;;;;;;5017179;28;20116;-89
2022/06/30 13:19:20;;;;;;;5.72;2.60;;;;;;;;;;5015833;28;20104;-89
2022/06/30 13:21:47;;;;;;;8.40;3.35;;;;;;;;;;5018556;28;20057;-88
2022/06/30 13:24:13;;;;;;;6.72;3.08;;;;;;;;;;5020215;28;20065;-87
2022/06/30 13:26:40;;;;;;;6.07;3.03;;;;;;;;;;5019281;28;20033;-88
2022/06/30 13:29:06;;;;;;;7.90;3.15;;;;;;;;;;5022712;28;20041;-88
2022/06/30 13:31:33;;;;;;;5.93;3.00;;;;;;;;;;5023153;28;20030;-88
2022/06/30 13:34:06;;;;;;;7.03;2.85;;;;;;;;;;5022384;28;20525;-87
2022/06/30 13:36:33;;;;;;;7.45;2.72;;;;;;;;;;5021037;28;20037;-88
2022/06/30 13:38:59;;;;;;;6.97;2.90;;;;;;;;;;5019271;28;20071;-89
2022/06/30 13:41:25;;;;;;;8.20;2.70;;;;;;;;;;5019288;28;20104;-88
2022/06/30 13:43:51;;;;;;;5.68;2.80;;;;;;;;;;5019691;28;20030;-87
2022/06/30 13:46:16;;;;;;;7.20;2.60;;;;;;;;;;5018535;28;20048;-88
2022/06/30 13:48:42;;;;;;;8.30;2.78;;;;;;;;;;5020423;28;20038;-88
2022/06/30 13:51:07;;;;;;;6.65;2.67;;;;;;;;;;5018904;28;20033;-88
2022/06/30 13:53:33;;;;;;;7.13;2.90;;;;;;;;;;5018716;28;20026;-88
2022/06/30 13:55:59;;;;;;;9.55;2.97;;;;;;;;;;5018043;28;20080;-89
2022/06/30 13:58:24;;;;;;;6.65;2.70;;;;;;;;;;5017839;28;20017;-90
2022/06/30 14:00:50;;;;;;;5.13;2.50;;;;;;;;;;5017843;28;20463;-88
2022/06/30 14:03:17;;;;;;;6.20;2.85;;;;;;;;;;5019605;28;20097;-88
2022/06/30 14:05:43;;;;;;;7.88;2.80;;;;;;;;;;5021241;28;20036;-88
2022/06/30 14:08:10;;;;;;;5.63;2.67;;;;;;;;;;5026823;28;20498;-89
2022/06/30 14:10:36;;;;;;;7.95;3.13;;;;;;;;;;5021355;28;20038;-87
2022/06/30 14:13:02;;;;;;;5.88;2.95;;;;;;;;;;5017823;28;20041;-87
2022/06/30 14:15:28;;;;;;;5.55;2.80;;;;;;;;;;5017985;28;20042;-88
2022/06/30 14:17:53;;;;;;;6.38;2.55;;;;;;;;;;5018431;28;20030;-87
2022/06/30 14:20:19;;;;;;;10.73;3.17;;;;;;;;;;5018213;28;20049;-89
2022/06/30 14:22:46;;;;;;;5.78;2.90;;;;;;;;;;5002215;28;20025;-88
2022/06/30 14:25:11;;;;;;;8.70;2.92;;;;;;;;;;5020073;28;20635;-88
2022/06/30 14:27:37;;;;;;;6.55;2.67;;;;;;;;;;5018028;28;20037;-88
2022/06/30 14:30:05;;;;;;;6.75;2.90;;;;;;;;;;5019532;28;20025;-88
2022/06/30 14:32:31;;;;;;;8.80;3.00;;;;;;;;;;5018282;28;20052;-88
2022/06/30 14:34:57;;;;;;;6.00;3.30;;;;;;;;;;5017696;28;20033;-86
2022/06/30 14:37:24;;;;;;;6.72;3.00;;;;;;;;;;5017691;28;20034;-87
2022/06/30 14:39:51;;;;;;;7.38;3.42;;;;;;;;;;5019186;28;20105;-88
2022/06/30 14:45:00;;;;;;;7.40;3.30;;;;;;;;;;5019688;28;20038;-87
2022/06/30 14:47:26;;;;;;;7.93;3.08;;;;;;;;;;5016242;28;20512;-87
2022/06/30 14:49:52;;;;;;;7.55;3.28;;;;;;;;;;5016434;28;20046;-87
2022/06/30 14:52:17;;;;;;;5.97;3.20;;;;;;;;;;5016223;28;20033;-87
2022/06/30 14:54:43;;;;;;;9.23;3.50;;;;;;;;;;5016354;28;20492;-87
2022/06/30 14:57:08;;;;;;;6.53;3.20;;;;;;;;;;5017105;28;20034;-86
2022/06/30 14:59:34;;;;;;;6.07;3.35;;;;;;;;;;5016849;28;20030;-87
2022/06/30 15:01:59;;;;;;;9.25;3.65;;;;;;;;;;5017425;28;20040;-87
2022/06/30 15:04:25;;;;;;;7.38;3.60;;;;;;;;;;5016922;28;20116;-87